sensor_id;sensor_type;location;lat;lon;timestamp;P1;durP1;ratioP1;P2;durP2;ratioP2
46931;SDS011;32670;51.464;11.964;2023-08-08T00:01:36;3.10;;;1.60;;
46931;SDS011;32670;51.464;11.964;2023-08-08T00:04:01;2.70;;;1.70;;
46931;SDS011;32670;51.464;11.964;2023-08-08T00:06:27;2.73;;;1.53;;
46931;SDS011;32670;51.464;11.964;2023-08-08T00:08:52;3.17;;;1.50;;
46931;SDS011;32670;51.464;11.964;2023-08-08T00:11:18;1.63;;;1.33;;
46931;SDS011;32670;51.464;11.964;2023-08-08T00:13:43;3.83;;;1.63;;
46931;SDS011;32670;51.464;11.964;2023-08-08T00:16:09;2.53;;;1.70;;
46931;SDS011;32670;51.464;11.964;2023-08-08T00:18:34;2.10;;;1.60;;
46931;SDS011;32670;51.464;11.964;2023-08-08T00:21:00;2.40;;;1.37;;
46931;SDS011;32670;51.464;11.964;2023-08-08T00:23:25;1.80;;;1.43;;
46931;SDS011;32670;51.464;11.964;2023-08-08T00:25:51;2.03;;;1.50;;
46931;SDS011;32670;51.464;11.964;2023-08-08T00:28:17;3.13;;;1.70;;
46931;SDS011;32670;51.464;11.964;2023-08-08T00:30:43;2.70;;;1.50;;
46931;SDS011;32670;51.464;11.964;2023-08-08T00:33:09;5.33;;;1.60;;
46931;SDS011;32670;51.464;11.964;2023-08-08T00:35:34;4.27;;;1.50;;
46931;SDS011;32670;51.464;11.964;2023-08-08T00:37:59;2.63;;;1.53;;
46931;SDS011;32670;51.464;11.964;2023-08-08T00:40:25;2.50;;;1.70;;
46931;SDS011;32670;51.464;11.964;2023-08-08T00:42:50;3.93;;;1.63;;
46931;SDS011;32670;51.464;11.964;2023-08-08T00:45:16;3.57;;;1.50;;
46931;SDS011;32670;51.464;11.964;2023-08-08T00:47:41;2.93;;;1.63;;
46931;SDS011;32670;51.464;11.964;2023-08-08T00:50:07;2.20;;;1.30;;
46931;SDS011;32670;51.464;11.964;2023-08-08T00:52:35;2.17;;;1.50;;
46931;SDS011;32670;51.464;11.964;2023-08-08T00:55:00;2.73;;;1.57;;
46931;SDS011;32670;51.464;11.964;2023-08-08T00:57:26;4.73;;;1.70;;
46931;SDS011;32670;51.464;11.964;2023-08-08T00:59:52;4.10;;;1.60;;
46931;SDS011;32670;51.464;11.964;2023-08-08T01:02:18;3.63;;;1.50;;
46931;SDS011;32670;51.464;11.964;2023-08-08T01:04:43;5.47;;;1.83;;
46931;SDS011;32670;51.464;11.964;2023-08-08T01:09:41;3.13;;;1.67;;
46931;SDS011;32670;51.464;11.964;2023-08-08T01:12:26;1.83;;;1.30;;
46931;SDS011;32670;51.464;11.964;2023-08-08T01:14:52;3.63;;;1.60;;
46931;SDS011;32670;51.464;11.964;2023-08-08T01:17:19;2.13;;;1.60;;
46931;SDS011;32670;51.464;11.964;2023-08-08T01:19:45;2.50;;;1.60;;
46931;SDS011;32670;51.464;11.964;2023-08-08T01:22:14;2.77;;;1.50;;
46931;SDS011;32670;51.464;11.964;2023-08-08T01:24:48;1.87;;;1.53;;
46931;SDS011;32670;51.464;11.964;2023-08-08T01:27:13;2.53;;;1.60;;
46931;SDS011;32670;51.464;11.964;2023-08-08T01:29:39;4.00;;;1.53;;
46931;SDS011;32670;51.464;11.964;2023-08-08T01:32:06;2.73;;;1.50;;
46931;SDS011;32670;51.464;11.964;2023-08-08T01:34:33;2.13;;;1.30;;
46931;SDS011;32670;51.464;11.964;2023-08-08T01:37:02;3.03;;;1.67;;
46931;SDS011;32670;51.464;11.964;2023-08-08T01:39:34;3.23;;;1.60;;
46931;SDS011;32670;51.464;11.964;2023-08-08T01:42:02;1.90;;;1.40;;
46931;SDS011;32670;51.464;11.964;2023-08-08T01:44:28;2.80;;;1.40;;
46931;SDS011;32670;51.464;11.964;2023-08-08T01:46:54;2.20;;;1.50;;
46931;SDS011;32670;51.464;11.964;2023-08-08T01:49:20;3.20;;;1.50;;
46931;SDS011;32670;51.464;11.964;2023-08-08T01:51:46;4.00;;;1.50;;
46931;SDS011;32670;51.464;11.964;2023-08-08T01:54:13;4.50;;;1.70;;
46931;SDS011;32670;51.464;11.964;2023-08-08T01:56:38;1.93;;;1.43;;
46931;SDS011;32670;51.464;11.964;2023-08-08T01:59:04;2.40;;;1.40;;
46931;SDS011;32670;51.464;11.964;2023-08-08T02:01:29;1.60;;;1.50;;
46931;SDS011;32670;51.464;11.964;2023-08-08T02:03:55;1.73;;;1.30;;
46931;SDS011;32670;51.464;11.964;2023-08-08T02:06:20;3.00;;;1.40;;
46931;SDS011;32670;51.464;11.964;2023-08-08T02:08:46;1.90;;;1.33;;
46931;SDS011;32670;51.464;11.964;2023-08-08T02:11:11;2.80;;;1.60;;
46931;SDS011;32670;51.464;11.964;2023-08-08T02:13:37;2.90;;;1.73;;
46931;SDS011;32670;51.464;11.964;2023-08-08T02:16:02;2.70;;;1.60;;
46931;SDS011;32670;51.464;11.964;2023-08-08T02:18:28;2.83;;;1.43;;
46931;SDS011;32670;51.464;11.964;2023-08-08T02:20:54;2.53;;;1.63;;
46931;SDS011;32670;51.464;11.964;2023-08-08T02:23:19;4.93;;;1.70;;
46931;SDS011;32670;51.464;11.964;2023-08-08T02:25:45;2.33;;;1.50;;
46931;SDS011;32670;51.464;11.964;2023-08-08T02:28:10;2.60;;;1.30;;
46931;SDS011;32670;51.464;11.964;2023-08-08T02:30:36;2.93;;;1.40;;
46931;SDS011;32670;51.464;11.964;2023-08-08T02:33:02;2.43;;;1.50;;
46931;SDS011;32670;51.464;11.964;2023-08-08T02:35:27;1.73;;;1.40;;
46931;SDS011;32670;51.464;11.964;2023-08-08T02:37:53;2.20;;;1.50;;
46931;SDS011;32670;51.464;11.964;2023-08-08T02:40:18;1.83;;;1.50;;
46931;SDS011;32670;51.464;11.964;2023-08-08T02:42:44;2.33;;;1.20;;
46931;SDS011;32670;51.464;11.964;2023-08-08T02:45:09;3.57;;;1.33;;
46931;SDS011;32670;51.464;11.964;2023-08-08T02:47:35;1.63;;;1.30;;
46931;SDS011;32670;51.464;11.964;2023-08-08T02:50:00;2.53;;;1.60;;
46931;SDS011;32670;51.464;11.964;2023-08-08T02:52:26;1.50;;;1.40;;
46931;SDS011;32670;51.464;11.964;2023-08-08T02:54:51;4.03;;;1.30;;
46931;SDS011;32670;51.464;11.964;2023-08-08T02:57:16;2.33;;;1.40;;
46931;SDS011;32670;51.464;11.964;2023-08-08T02:59:42;1.53;;;1.37;;
46931;SDS011;32670;51.464;11.964;2023-08-08T03:02:07;1.97;;;1.40;;
46931;SDS011;32670;51.464;11.964;2023-08-08T03:04:33;2.43;;;1.57;;
46931;SDS011;32670;51.464;11.964;2023-08-08T03:06:58;1.87;;;1.30;;
46931;SDS011;32670;51.464;11.964;2023-08-08T03:09:26;2.60;;;1.17;;
46931;SDS011;32670;51.464;11.964;2023-08-08T03:11:52;1.90;;;1.57;;
46931;SDS011;32670;51.464;11.964;2023-08-08T03:14:17;2.30;;;1.30;;
46931;SDS011;32670;51.464;11.964;2023-08-08T03:16:43;1.67;;;1.37;;
46931;SDS011;32670;51.464;11.964;2023-08-08T03:19:08;2.77;;;1.40;;
46931;SDS011;32670;51.464;11.964;2023-08-08T03:21:33;2.73;;;1.40;;
46931;SDS011;32670;51.464;11.964;2023-08-08T03:23:59;1.50;;;1.30;;
46931;SDS011;32670;51.464;11.964;2023-08-08T03:26:24;2.47;;;1.40;;
46931;SDS011;32670;51.464;11.964;2023-08-08T03:28:50;1.60;;;1.50;;
46931;SDS011;32670;51.464;11.964;2023-08-08T03:31:18;1.63;;;1.20;;
46931;SDS011;32670;51.464;11.964;2023-08-08T03:33:44;1.90;;;1.30;;
46931;SDS011;32670;51.464;11.964;2023-08-08T03:36:10;4.17;;;1.43;;
46931;SDS011;32670;51.464;11.964;2023-08-08T03:38:36;2.07;;;1.40;;
46931;SDS011;32670;51.464;11.964;2023-08-08T03:41:02;1.53;;;1.27;;
46931;SDS011;32670;51.464;11.964;2023-08-08T03:43:29;5.93;;;1.40;;
46931;SDS011;32670;51.464;11.964;2023-08-08T03:45:54;1.73;;;1.43;;
46931;SDS011;32670;51.464;11.964;2023-08-08T03:48:20;1.90;;;1.40;;
46931;SDS011;32670;51.464;11.964;2023-08-08T03:50:45;3.00;;;1.30;;
46931;SDS011;32670;51.464;11.964;2023-08-08T03:53:11;1.53;;;1.20;;
46931;SDS011;32670;51.464;11.964;2023-08-08T03:55:37;1.80;;;1.30;;
46931;SDS011;32670;51.464;11.964;2023-08-08T03:58:03;2.07;;;1.30;;
46931;SDS011;32670;51.464;11.964;2023-08-08T04:00:30;3.03;;;1.37;;
46931;SDS011;32670;51.464;11.964;2023-08-08T04:02:56;5.03;;;1.50;;
46931;SDS011;32670;51.464;11.964;2023-08-08T04:05:21;2.47;;;1.70;;
46931;SDS011;32670;51.464;11.964;2023-08-08T04:07:46;1.83;;;1.30;;
46931;SDS011;32670;51.464;11.964;2023-08-08T04:10:12;2.67;;;1.43;;
46931;SDS011;32670;51.464;11.964;2023-08-08T04:12:38;3.33;;;1.40;;
46931;SDS011;32670;51.464;11.964;2023-08-08T04:15:03;2.37;;;1.70;;
46931;SDS011;32670;51.464;11.964;2023-08-08T04:17:29;2.47;;;1.30;;
46931;SDS011;32670;51.464;11.964;2023-08-08T04:19:55;1.37;;;1.20;;
46931;SDS011;32670;51.464;11.964;2023-08-08T04:22:20;2.23;;;1.70;;
46931;SDS011;32670;51.464;11.964;2023-08-08T04:24:46;2.80;;;1.70;;
46931;SDS011;32670;51.464;11.964;2023-08-08T04:27:11;1.83;;;1.40;;
46931;SDS011;32670;51.464;11.964;2023-08-08T04:29:37;4.77;;;1.43;;
46931;SDS011;32670;51.464;11.964;2023-08-08T04:32:03;3.07;;;1.63;;
46931;SDS011;32670;51.464;11.964;2023-08-08T04:34:29;2.30;;;1.37;;
46931;SDS011;32670;51.464;11.964;2023-08-08T04:36:54;1.50;;;1.40;;
46931;SDS011;32670;51.464;11.964;2023-08-08T04:39:19;1.80;;;1.30;;
46931;SDS011;32670;51.464;11.964;2023-08-08T04:41:45;2.67;;;1.33;;
46931;SDS011;32670;51.464;11.964;2023-08-08T04:44:10;1.77;;;1.40;;
46931;SDS011;32670;51.464;11.964;2023-08-08T04:46:36;2.00;;;1.27;;
46931;SDS011;32670;51.464;11.964;2023-08-08T04:49:01;2.43;;;1.50;;
46931;SDS011;32670;51.464;11.964;2023-08-08T04:51:27;2.57;;;1.30;;
46931;SDS011;32670;51.464;11.964;2023-08-08T04:53:52;3.37;;;1.43;;
46931;SDS011;32670;51.464;11.964;2023-08-08T04:56:18;3.67;;;1.57;;
46931;SDS011;32670;51.464;11.964;2023-08-08T04:58:43;1.70;;;1.30;;
46931;SDS011;32670;51.464;11.964;2023-08-08T05:01:09;1.90;;;1.40;;
46931;SDS011;32670;51.464;11.964;2023-08-08T05:03:39;3.17;;;1.57;;
46931;SDS011;32670;51.464;11.964;2023-08-08T05:06:04;2.47;;;1.40;;
46931;SDS011;32670;51.464;11.964;2023-08-08T05:08:30;3.13;;;1.63;;
46931;SDS011;32670;51.464;11.964;2023-08-08T05:10:55;1.67;;;1.33;;
46931;SDS011;32670;51.464;11.964;2023-08-08T05:13:21;1.53;;;1.40;;
46931;SDS011;32670;51.464;11.964;2023-08-08T05:15:46;3.23;;;1.50;;
46931;SDS011;32670;51.464;11.964;2023-08-08T05:18:12;3.47;;;1.43;;
46931;SDS011;32670;51.464;11.964;2023-08-08T05:20:37;4.10;;;1.70;;
46931;SDS011;32670;51.464;11.964;2023-08-08T05:23:03;1.90;;;1.40;;
46931;SDS011;32670;51.464;11.964;2023-08-08T05:25:29;2.93;;;1.50;;
46931;SDS011;32670;51.464;11.964;2023-08-08T05:27:54;5.63;;;1.50;;
46931;SDS011;32670;51.464;11.964;2023-08-08T05:30:20;3.70;;;1.40;;
46931;SDS011;32670;51.464;11.964;2023-08-08T05:32:46;3.37;;;1.30;;
46931;SDS011;32670;51.464;11.964;2023-08-08T05:35:11;2.20;;;1.40;;
46931;SDS011;32670;51.464;11.964;2023-08-08T05:37:36;1.97;;;1.60;;
46931;SDS011;32670;51.464;11.964;2023-08-08T05:40:02;2.07;;;1.20;;
46931;SDS011;32670;51.464;11.964;2023-08-08T05:42:31;1.77;;;1.33;;
46931;SDS011;32670;51.464;11.964;2023-08-08T05:44:57;2.43;;;1.30;;
46931;SDS011;32670;51.464;11.964;2023-08-08T05:47:22;3.97;;;1.40;;
46931;SDS011;32670;51.464;11.964;2023-08-08T05:49:48;2.40;;;1.27;;
46931;SDS011;32670;51.464;11.964;2023-08-08T05:52:13;2.60;;;1.50;;
46931;SDS011;32670;51.464;11.964;2023-08-08T05:54:39;2.70;;;1.30;;
46931;SDS011;32670;51.464;11.964;2023-08-08T05:57:04;2.20;;;1.23;;
46931;SDS011;32670;51.464;11.964;2023-08-08T05:59:30;1.90;;;1.40;;
46931;SDS011;32670;51.464;11.964;2023-08-08T06:01:55;2.33;;;1.60;;
46931;SDS011;32670;51.464;11.964;2023-08-08T06:04:21;3.40;;;1.40;;
46931;SDS011;32670;51.464;11.964;2023-08-08T06:06:46;2.13;;;1.30;;
46931;SDS011;32670;51.464;11.964;2023-08-08T06:09:14;1.43;;;1.20;;
46931;SDS011;32670;51.464;11.964;2023-08-08T06:11:40;3.47;;;1.40;;
46931;SDS011;32670;51.464;11.964;2023-08-08T06:14:05;2.00;;;1.40;;
46931;SDS011;32670;51.464;11.964;2023-08-08T06:16:31;1.83;;;1.30;;
46931;SDS011;32670;51.464;11.964;2023-08-08T06:18:56;3.00;;;2.33;;
46931;SDS011;32670;51.464;11.964;2023-08-08T06:21:22;2.97;;;1.90;;
46931;SDS011;32670;51.464;11.964;2023-08-08T06:23:47;1.50;;;1.30;;
46931;SDS011;32670;51.464;11.964;2023-08-08T06:26:14;1.53;;;1.40;;
46931;SDS011;32670;51.464;11.964;2023-08-08T06:28:39;3.00;;;1.40;;
46931;SDS011;32670;51.464;11.964;2023-08-08T06:31:05;1.83;;;1.50;;
46931;SDS011;32670;51.464;11.964;2023-08-08T06:33:30;6.57;;;1.67;;
46931;SDS011;32670;51.464;11.964;2023-08-08T06:35:56;6.47;;;1.67;;
46931;SDS011;32670;51.464;11.964;2023-08-08T06:38:21;6.97;;;1.80;;
46931;SDS011;32670;51.464;11.964;2023-08-08T06:40:47;6.83;;;1.80;;
46931;SDS011;32670;51.464;11.964;2023-08-08T06:43:13;7.23;;;1.70;;
46931;SDS011;32670;51.464;11.964;2023-08-08T06:45:38;6.30;;;1.90;;
46931;SDS011;32670;51.464;11.964;2023-08-08T06:48:04;5.40;;;1.83;;
46931;SDS011;32670;51.464;11.964;2023-08-08T06:50:30;5.07;;;1.43;;
46931;SDS011;32670;51.464;11.964;2023-08-08T06:52:55;4.37;;;1.80;;
46931;SDS011;32670;51.464;11.964;2023-08-08T06:55:21;5.13;;;1.70;;
46931;SDS011;32670;51.464;11.964;2023-08-08T06:57:46;6.60;;;1.80;;
46931;SDS011;32670;51.464;11.964;2023-08-08T07:00:12;8.70;;;1.87;;
46931;SDS011;32670;51.464;11.964;2023-08-08T07:02:38;6.17;;;1.83;;
46931;SDS011;32670;51.464;11.964;2023-08-08T07:05:04;5.83;;;1.50;;
46931;SDS011;32670;51.464;11.964;2023-08-08T07:07:30;4.80;;;1.80;;
46931;SDS011;32670;51.464;11.964;2023-08-08T07:09:57;4.57;;;1.50;;
46931;SDS011;32670;51.464;11.964;2023-08-08T07:12:23;5.40;;;1.73;;
46931;SDS011;32670;51.464;11.964;2023-08-08T07:14:48;3.43;;;1.83;;
46931;SDS011;32670;51.464;11.964;2023-08-08T07:17:14;1.97;;;1.77;;
46931;SDS011;32670;51.464;11.964;2023-08-08T07:19:39;2.77;;;1.60;;
46931;SDS011;32670;51.464;11.964;2023-08-08T07:22:06;2.67;;;2.10;;
46931;SDS011;32670;51.464;11.964;2023-08-08T07:24:31;3.40;;;1.73;;
46931;SDS011;32670;51.464;11.964;2023-08-08T07:26:57;3.20;;;1.87;;
46931;SDS011;32670;51.464;11.964;2023-08-08T07:29:24;3.73;;;2.17;;
46931;SDS011;32670;51.464;11.964;2023-08-08T07:31:51;2.20;;;1.70;;
46931;SDS011;32670;51.464;11.964;2023-08-08T07:34:18;3.20;;;2.10;;
46931;SDS011;32670;51.464;11.964;2023-08-08T07:36:43;3.20;;;2.00;;
46931;SDS011;32670;51.464;11.964;2023-08-08T07:39:09;4.37;;;1.80;;
46931;SDS011;32670;51.464;11.964;2023-08-08T07:41:35;6.17;;;2.17;;
46931;SDS011;32670;51.464;11.964;2023-08-08T07:44:00;6.23;;;1.87;;
46931;SDS011;32670;51.464;11.964;2023-08-08T07:46:26;2.73;;;1.73;;
46931;SDS011;32670;51.464;11.964;2023-08-08T07:48:51;5.67;;;2.00;;
46931;SDS011;32670;51.464;11.964;2023-08-08T07:51:17;2.37;;;1.90;;
46931;SDS011;32670;51.464;11.964;2023-08-08T07:53:42;4.77;;;2.00;;
46931;SDS011;32670;51.464;11.964;2023-08-08T07:56:08;2.10;;;1.90;;
46931;SDS011;32670;51.464;11.964;2023-08-08T07:58:33;2.10;;;1.80;;
46931;SDS011;32670;51.464;11.964;2023-08-08T08:00:59;3.40;;;2.00;;
46931;SDS011;32670;51.464;11.964;2023-08-08T08:03:25;2.93;;;1.97;;
46931;SDS011;32670;51.464;11.964;2023-08-08T08:05:52;4.73;;;2.80;;
46931;SDS011;32670;51.464;11.964;2023-08-08T08:08:17;2.60;;;1.97;;
46931;SDS011;32670;51.464;11.964;2023-08-08T08:10:43;2.07;;;1.70;;
46931;SDS011;32670;51.464;11.964;2023-08-08T08:13:10;2.17;;;1.80;;
46931;SDS011;32670;51.464;11.964;2023-08-08T08:15:36;2.43;;;1.63;;
46931;SDS011;32670;51.464;11.964;2023-08-08T08:18:02;3.30;;;1.77;;
46931;SDS011;32670;51.464;11.964;2023-08-08T08:20:28;2.90;;;2.17;;
46931;SDS011;32670;51.464;11.964;2023-08-08T08:22:53;2.83;;;1.70;;
46931;SDS011;32670;51.464;11.964;2023-08-08T08:25:19;2.47;;;2.00;;
46931;SDS011;32670;51.464;11.964;2023-08-08T08:27:45;3.00;;;2.03;;
46931;SDS011;32670;51.464;11.964;2023-08-08T08:30:10;2.40;;;2.00;;
46931;SDS011;32670;51.464;11.964;2023-08-08T08:32:37;2.73;;;1.90;;
46931;SDS011;32670;51.464;11.964;2023-08-08T08:35:04;2.13;;;1.93;;
46931;SDS011;32670;51.464;11.964;2023-08-08T08:37:31;2.40;;;1.83;;
46931;SDS011;32670;51.464;11.964;2023-08-08T08:39:57;3.47;;;1.60;;
46931;SDS011;32670;51.464;11.964;2023-08-08T08:42:22;2.67;;;1.80;;
46931;SDS011;32670;51.464;11.964;2023-08-08T08:44:48;2.33;;;1.80;;
46931;SDS011;32670;51.464;11.964;2023-08-08T08:47:15;2.90;;;2.07;;
46931;SDS011;32670;51.464;11.964;2023-08-08T08:49:44;3.57;;;1.90;;
46931;SDS011;32670;51.464;11.964;2023-08-08T08:52:11;2.37;;;1.90;;
46931;SDS011;32670;51.464;11.964;2023-08-08T08:54:37;1.97;;;1.80;;
46931;SDS011;32670;51.464;11.964;2023-08-08T08:57:03;2.00;;;1.80;;
46931;SDS011;32670;51.464;11.964;2023-08-08T08:59:29;2.53;;;2.03;;
46931;SDS011;32670;51.464;11.964;2023-08-08T09:01:54;1.90;;;1.80;;
46931;SDS011;32670;51.464;11.964;2023-08-08T09:04:21;4.00;;;2.30;;
46931;SDS011;32670;51.464;11.964;2023-08-08T09:06:47;2.37;;;2.17;;
46931;SDS011;32670;51.464;11.964;2023-08-08T09:09:14;5.30;;;2.13;;
46931;SDS011;32670;51.464;11.964;2023-08-08T09:11:42;3.10;;;2.10;;
46931;SDS011;32670;51.464;11.964;2023-08-08T09:14:18;4.53;;;1.93;;
46931;SDS011;32670;51.464;11.964;2023-08-08T09:16:45;3.37;;;2.27;;
46931;SDS011;32670;51.464;11.964;2023-08-08T09:19:13;2.43;;;2.03;;
46931;SDS011;32670;51.464;11.964;2023-08-08T09:21:39;2.57;;;2.10;;
46931;SDS011;32670;51.464;11.964;2023-08-08T09:24:05;2.83;;;2.43;;
46931;SDS011;32670;51.464;11.964;2023-08-08T09:26:31;2.70;;;2.50;;
46931;SDS011;32670;51.464;11.964;2023-08-08T09:28:57;3.70;;;2.40;;
46931;SDS011;32670;51.464;11.964;2023-08-08T09:31:26;2.70;;;2.50;;
46931;SDS011;32670;51.464;11.964;2023-08-08T09:33:53;3.17;;;2.70;;
46931;SDS011;32670;51.464;11.964;2023-08-08T09:36:20;2.80;;;2.50;;
46931;SDS011;32670;51.464;11.964;2023-08-08T09:38:48;2.57;;;2.37;;
46931;SDS011;32670;51.464;11.964;2023-08-08T09:41:14;4.73;;;3.27;;
46931;SDS011;32670;51.464;11.964;2023-08-08T09:43:42;3.40;;;3.10;;
46931;SDS011;32670;51.464;11.964;2023-08-08T09:46:09;3.10;;;2.80;;
46931;SDS011;32670;51.464;11.964;2023-08-08T09:48:35;3.67;;;2.93;;
46931;SDS011;32670;51.464;11.964;2023-08-08T09:51:03;2.80;;;2.60;;
46931;SDS011;32670;51.464;11.964;2023-08-08T09:53:29;3.03;;;2.73;;
46931;SDS011;32670;51.464;11.964;2023-08-08T09:55:56;6.57;;;4.07;;
46931;SDS011;32670;51.464;11.964;2023-08-08T09:58:22;4.77;;;4.27;;
46931;SDS011;32670;51.464;11.964;2023-08-08T10:00:49;5.27;;;4.77;;
46931;SDS011;32670;51.464;11.964;2023-08-08T10:03:15;3.20;;;3.00;;
46931;SDS011;32670;51.464;11.964;2023-08-08T10:05:42;3.60;;;3.30;;
46931;SDS011;32670;51.464;11.964;2023-08-08T10:08:11;6.60;;;3.20;;
46931;SDS011;32670;51.464;11.964;2023-08-08T10:10:40;3.97;;;3.07;;
46931;SDS011;32670;51.464;11.964;2023-08-08T10:13:06;3.43;;;3.03;;
46931;SDS011;32670;51.464;11.964;2023-08-08T10:15:32;3.30;;;3.00;;
46931;SDS011;32670;51.464;11.964;2023-08-08T10:18:02;3.30;;;3.00;;
46931;SDS011;32670;51.464;11.964;2023-08-08T10:20:30;3.30;;;3.00;;
46931;SDS011;32670;51.464;11.964;2023-08-08T10:22:59;4.03;;;3.20;;
46931;SDS011;32670;51.464;11.964;2023-08-08T10:25:26;3.30;;;3.00;;
46931;SDS011;32670;51.464;11.964;2023-08-08T10:28:05;3.50;;;2.97;;
46931;SDS011;32670;51.464;11.964;2023-08-08T10:30:47;3.20;;;2.90;;
46931;SDS011;32670;51.464;11.964;2023-08-08T10:33:17;3.33;;;3.03;;
46931;SDS011;32670;51.464;11.964;2023-08-08T10:36:00;4.10;;;3.37;;
46931;SDS011;32670;51.464;11.964;2023-08-08T10:41:11;3.33;;;3.03;;
46931;SDS011;32670;51.464;11.964;2023-08-08T10:43:38;3.63;;;3.27;;
46931;SDS011;32670;51.464;11.964;2023-08-08T10:46:22;3.43;;;3.13;;
46931;SDS011;32670;51.464;11.964;2023-08-08T10:48:53;3.53;;;3.23;;
46931;SDS011;32670;51.464;11.964;2023-08-08T10:51:20;3.90;;;3.60;;
46931;SDS011;32670;51.464;11.964;2023-08-08T10:53:45;3.63;;;3.33;;
46931;SDS011;32670;51.464;11.964;2023-08-08T10:56:14;4.23;;;3.83;;
46931;SDS011;32670;51.464;11.964;2023-08-08T10:58:40;4.30;;;3.90;;
46931;SDS011;32670;51.464;11.964;2023-08-08T11:01:07;4.03;;;3.70;;
46931;SDS011;32670;51.464;11.964;2023-08-08T11:03:37;3.90;;;3.60;;
46931;SDS011;32670;51.464;11.964;2023-08-08T11:06:04;4.00;;;3.60;;
46931;SDS011;32670;51.464;11.964;2023-08-08T11:08:31;6.23;;;3.97;;
46931;SDS011;32670;51.464;11.964;2023-08-08T11:10:57;3.93;;;3.63;;
46931;SDS011;32670;51.464;11.964;2023-08-08T11:13:24;4.13;;;3.83;;
46931;SDS011;32670;51.464;11.964;2023-08-08T11:15:49;4.33;;;3.97;;
46931;SDS011;32670;51.464;11.964;2023-08-08T11:18:15;4.67;;;4.23;;
46931;SDS011;32670;51.464;11.964;2023-08-08T11:20:41;4.70;;;4.30;;
46931;SDS011;32670;51.464;11.964;2023-08-08T11:23:07;4.50;;;4.10;;
46931;SDS011;32670;51.464;11.964;2023-08-08T11:25:35;4.40;;;4.10;;
46931;SDS011;32670;51.464;11.964;2023-08-08T11:28:01;4.57;;;4.17;;
46931;SDS011;32670;51.464;11.964;2023-08-08T11:30:28;4.63;;;4.23;;
46931;SDS011;32670;51.464;11.964;2023-08-08T11:32:54;4.80;;;4.30;;
46931;SDS011;32670;51.464;11.964;2023-08-08T11:35:23;6.40;;;5.00;;
46931;SDS011;32670;51.464;11.964;2023-08-08T11:37:50;5.57;;;5.07;;
46931;SDS011;32670;51.464;11.964;2023-08-08T11:40:17;4.50;;;4.17;;
46931;SDS011;32670;51.464;11.964;2023-08-08T11:42:44;4.90;;;4.50;;
46931;SDS011;32670;51.464;11.964;2023-08-08T11:45:10;4.73;;;4.33;;
46931;SDS011;32670;51.464;11.964;2023-08-08T11:47:37;5.37;;;4.87;;
46931;SDS011;32670;51.464;11.964;2023-08-08T11:50:05;5.07;;;4.57;;
46931;SDS011;32670;51.464;11.964;2023-08-08T11:52:31;4.70;;;4.30;;
46931;SDS011;32670;51.464;11.964;2023-08-08T11:54:58;5.10;;;4.67;;
46931;SDS011;32670;51.464;11.964;2023-08-08T11:57:25;5.30;;;4.87;;
46931;SDS011;32670;51.464;11.964;2023-08-08T11:59:52;5.30;;;4.80;;
46931;SDS011;32670;51.464;11.964;2023-08-08T12:02:18;5.50;;;5.00;;
46931;SDS011;32670;51.464;11.964;2023-08-08T12:04:44;5.47;;;4.97;;
46931;SDS011;32670;51.464;11.964;2023-08-08T12:07:11;5.80;;;5.30;;
46931;SDS011;32670;51.464;11.964;2023-08-08T12:09:36;5.80;;;5.30;;
46931;SDS011;32670;51.464;11.964;2023-08-08T12:12:02;5.97;;;5.00;;
46931;SDS011;32670;51.464;11.964;2023-08-08T12:14:29;5.70;;;5.20;;
46931;SDS011;32670;51.464;11.964;2023-08-08T12:16:55;5.50;;;5.00;;
46931;SDS011;32670;51.464;11.964;2023-08-08T12:19:24;5.37;;;4.97;;
46931;SDS011;32670;51.464;11.964;2023-08-08T12:21:50;5.97;;;5.40;;
46931;SDS011;32670;51.464;11.964;2023-08-08T12:24:17;6.30;;;5.70;;
46931;SDS011;32670;51.464;11.964;2023-08-08T12:26:43;5.70;;;5.20;;
46931;SDS011;32670;51.464;11.964;2023-08-08T12:29:09;6.23;;;5.63;;
46931;SDS011;32670;51.464;11.964;2023-08-08T12:31:34;6.30;;;5.63;;
46931;SDS011;32670;51.464;11.964;2023-08-08T12:34:00;6.80;;;6.20;;
46931;SDS011;32670;51.464;11.964;2023-08-08T12:36:26;7.07;;;6.37;;
46931;SDS011;32670;51.464;11.964;2023-08-08T12:38:51;8.40;;;7.60;;
46931;SDS011;32670;51.464;11.964;2023-08-08T12:41:17;8.80;;;8.00;;
46931;SDS011;32670;51.464;11.964;2023-08-08T12:43:43;8.10;;;7.40;;
46931;SDS011;32670;51.464;11.964;2023-08-08T12:46:11;8.30;;;7.57;;
46931;SDS011;32670;51.464;11.964;2023-08-08T12:48:37;8.80;;;8.00;;
46931;SDS011;32670;51.464;11.964;2023-08-08T12:51:02;9.00;;;8.13;;
46931;SDS011;32670;51.464;11.964;2023-08-08T12:53:28;11.97;;;8.07;;
46931;SDS011;32670;51.464;11.964;2023-08-08T12:55:54;9.13;;;8.23;;
46931;SDS011;32670;51.464;11.964;2023-08-08T12:58:19;17.73;;;8.10;;
46931;SDS011;32670;51.464;11.964;2023-08-08T13:00:45;13.30;;;9.23;;
46931;SDS011;32670;51.464;11.964;2023-08-08T13:03:11;11.37;;;8.57;;
46931;SDS011;32670;51.464;11.964;2023-08-08T13:05:37;9.27;;;7.93;;
46931;SDS011;32670;51.464;11.964;2023-08-08T13:08:03;9.43;;;8.53;;
46931;SDS011;32670;51.464;11.964;2023-08-08T13:10:29;8.53;;;7.73;;
46931;SDS011;32670;51.464;11.964;2023-08-08T13:12:55;7.77;;;6.97;;
46931;SDS011;32670;51.464;11.964;2023-08-08T13:15:21;7.67;;;6.93;;
46931;SDS011;32670;51.464;11.964;2023-08-08T13:17:46;8.37;;;6.97;;
46931;SDS011;32670;51.464;11.964;2023-08-08T13:20:12;7.80;;;7.13;;
46931;SDS011;32670;51.464;11.964;2023-08-08T13:22:38;9.63;;;7.80;;
46931;SDS011;32670;51.464;11.964;2023-08-08T13:25:04;8.77;;;7.67;;
46931;SDS011;32670;51.464;11.964;2023-08-08T13:27:30;12.53;;;7.57;;
46931;SDS011;32670;51.464;11.964;2023-08-08T13:29:57;8.40;;;7.60;;
46931;SDS011;32670;51.464;11.964;2023-08-08T13:32:22;8.60;;;7.80;;
46931;SDS011;32670;51.464;11.964;2023-08-08T13:34:48;8.27;;;7.47;;
46931;SDS011;32670;51.464;11.964;2023-08-08T13:37:13;7.80;;;7.10;;
46931;SDS011;32670;51.464;11.964;2023-08-08T13:39:40;8.80;;;6.67;;
46931;SDS011;32670;51.464;11.964;2023-08-08T13:42:06;8.00;;;7.17;;
46931;SDS011;32670;51.464;11.964;2023-08-08T13:44:31;8.83;;;6.90;;
46931;SDS011;32670;51.464;11.964;2023-08-08T13:46:57;8.87;;;7.87;;
46931;SDS011;32670;51.464;11.964;2023-08-08T13:49:24;8.50;;;7.70;;
46931;SDS011;32670;51.464;11.964;2023-08-08T13:51:51;9.33;;;7.33;;
46931;SDS011;32670;51.464;11.964;2023-08-08T13:54:17;9.80;;;7.47;;
46931;SDS011;32670;51.464;11.964;2023-08-08T13:56:43;7.70;;;6.97;;
46931;SDS011;32670;51.464;11.964;2023-08-08T13:59:09;7.40;;;6.80;;
46931;SDS011;32670;51.464;11.964;2023-08-08T14:01:34;8.03;;;6.97;;
46931;SDS011;32670;51.464;11.964;2023-08-08T14:04:00;8.00;;;7.20;;
46931;SDS011;32670;51.464;11.964;2023-08-08T14:06:25;7.50;;;6.73;;
46931;SDS011;32670;51.464;11.964;2023-08-08T14:08:52;9.37;;;6.50;;
46931;SDS011;32670;51.464;11.964;2023-08-08T14:11:17;6.90;;;6.37;;
46931;SDS011;32670;51.464;11.964;2023-08-08T14:13:43;6.93;;;6.23;;
46931;SDS011;32670;51.464;11.964;2023-08-08T14:16:09;7.43;;;6.83;;
46931;SDS011;32670;51.464;11.964;2023-08-08T14:18:34;6.70;;;6.10;;
46931;SDS011;32670;51.464;11.964;2023-08-08T14:21:00;7.30;;;6.60;;
46931;SDS011;32670;51.464;11.964;2023-08-08T14:23:27;7.10;;;6.47;;
46931;SDS011;32670;51.464;11.964;2023-08-08T14:25:52;7.27;;;6.57;;
46931;SDS011;32670;51.464;11.964;2023-08-08T14:28:18;8.07;;;7.27;;
46931;SDS011;32670;51.464;11.964;2023-08-08T14:30:44;6.00;;;5.50;;
46931;SDS011;32670;51.464;11.964;2023-08-08T14:33:10;7.73;;;6.93;;